createdAt,value
2024-01-22T00:01:36.723Z,27.60
2024-01-22T00:05:02.864Z,26.10
2024-01-22T00:08:29.008Z,35.60
2024-01-22T00:11:55.268Z,36.90
2024-01-22T00:15:21.316Z,30.60
2024-01-22T00:18:48.261Z,30.30
2024-01-22T00:22:14.139Z,32.60
2024-01-22T00:25:40.337Z,27.50
2024-01-22T00:29:06.368Z,21.80
2024-01-22T00:32:32.622Z,27.30
2024-01-22T00:35:59.143Z,28.00
2024-01-22T00:39:25.882Z,26.10
2024-01-22T00:42:57.118Z,25.30
2024-01-22T00:46:23.522Z,26.30
2024-01-22T00:49:49.901Z,25.50
2024-01-22T00:53:16.002Z,24.20
2024-01-22T00:56:42.273Z,28.10
2024-01-22T01:00:12.456Z,27.20
2024-01-22T01:03:38.435Z,29.20
2024-01-22T01:07:04.108Z,26.50
2024-01-22T01:10:29.951Z,27.60
2024-01-22T01:13:56.223Z,28.90
2024-01-22T01:17:24.456Z,22.50
2024-01-22T01:20:50.552Z,24.00
2024-01-22T01:24:18.411Z,25.40
2024-01-22T01:27:44.313Z,29.60
2024-01-22T01:31:10.311Z,22.50
2024-01-22T01:34:36.501Z,25.90
2024-01-22T01:38:02.370Z,27.20
2024-01-22T01:41:28.506Z,20.80
2024-01-22T01:44:55.476Z,23.60
2024-01-22T01:48:21.709Z,29.40
2024-01-22T01:51:48.147Z,23.80
2024-01-22T01:55:14.783Z,28.50
2024-01-22T01:58:41.116Z,22.80
2024-01-22T02:02:07.855Z,25.10
2024-01-22T02:05:33.976Z,22.70
2024-01-22T02:09:00.339Z,24.70
2024-01-22T02:12:26.566Z,23.50
2024-01-22T02:15:52.287Z,21.60
2024-01-22T02:19:19.094Z,23.60
2024-01-22T02:22:45.480Z,23.70
2024-01-22T02:26:12.546Z,19.50
2024-01-22T02:29:38.485Z,19.10
2024-01-22T02:33:05.509Z,21.50
2024-01-22T02:36:31.411Z,19.40
2024-01-22T02:39:57.923Z,20.60
2024-01-22T02:43:24.526Z,18.70
2024-01-22T02:46:50.597Z,18.30
2024-01-22T02:50:16.788Z,15.50
2024-01-22T02:53:43.031Z,17.50
2024-01-22T02:57:11.576Z,19.50
2024-01-22T03:00:38.034Z,19.90
2024-01-22T03:04:04.146Z,16.40
2024-01-22T03:07:31.123Z,21.20
2024-01-22T03:10:58.298Z,20.80
2024-01-22T03:14:24.046Z,18.80
2024-01-22T03:17:50.278Z,18.00
2024-01-22T03:21:17.191Z,20.70
2024-01-22T03:24:47.740Z,18.50
2024-01-22T03:28:13.810Z,15.40
2024-01-22T03:31:40.078Z,17.00
2024-01-22T03:35:06.639Z,22.10
2024-01-22T03:38:32.266Z,20.70
2024-01-22T03:41:58.035Z,21.00
2024-01-22T03:45:25.814Z,18.10
2024-01-22T03:48:52.142Z,16.20
2024-01-22T03:52:18.037Z,20.40
2024-01-22T03:55:44.472Z,18.20
2024-01-22T03:59:12.038Z,16.60
2024-01-22T04:02:38.109Z,19.60
2024-01-22T04:06:05.354Z,16.20
2024-01-22T04:09:31.362Z,15.50
2024-01-22T04:12:58.269Z,18.00
2024-01-22T04:16:24.347Z,25.40
2024-01-22T04:19:50.932Z,24.10
2024-01-22T04:23:16.913Z,19.50
2024-01-22T04:26:42.432Z,17.30
2024-01-22T04:30:10.164Z,16.30
2024-01-22T04:33:37.149Z,18.30
2024-01-22T04:37:02.805Z,16.50
2024-01-22T04:40:29.079Z,16.00
2024-01-22T04:43:54.834Z,15.30
2024-01-22T04:47:21.044Z,16.50
2024-01-22T04:50:47.455Z,13.60
2024-01-22T04:54:14.101Z,17.10
2024-01-22T04:57:39.869Z,15.00
2024-01-22T05:01:06.002Z,15.00
2024-01-22T05:04:31.994Z,12.90
2024-01-22T05:07:57.860Z,16.60
2024-01-22T05:11:23.722Z,17.80
2024-01-22T05:14:49.850Z,19.10
2024-01-22T05:18:16.831Z,17.80
2024-01-22T05:21:42.907Z,12.80
2024-01-22T05:25:11.719Z,14.20
2024-01-22T05:28:38.239Z,16.10
2024-01-22T05:32:03.963Z,14.40
2024-01-22T05:35:29.885Z,12.70
2024-01-22T05:38:56.051Z,17.00
2024-01-22T05:42:21.988Z,14.60
2024-01-22T05:45:48.290Z,13.10
2024-01-22T05:49:14.190Z,15.70
2024-01-22T05:52:40.553Z,16.70
2024-01-22T05:56:07.993Z,13.70
2024-01-22T05:59:34.304Z,16.70
2024-01-22T06:03:02.267Z,14.40
2024-01-22T06:06:28.879Z,16.10
2024-01-22T06:10:01.775Z,15.20
2024-01-22T06:13:34.521Z,16.60
2024-01-22T06:17:05.455Z,19.50
2024-01-22T06:20:36.218Z,55.10
2024-01-22T06:24:03.772Z,50.60
2024-01-22T06:27:30.249Z,40.20
2024-01-22T06:30:56.401Z,33.80
2024-01-22T06:34:25.367Z,14.90
2024-01-22T06:37:51.812Z,11.70
2024-01-22T06:41:20.630Z,15.60
2024-01-22T06:44:46.533Z,15.50
2024-01-22T06:48:13.666Z,13.70
2024-01-22T06:51:45.969Z,13.10
2024-01-22T06:55:14.362Z,14.20
2024-01-22T06:58:40.456Z,19.10
2024-01-22T07:02:07.547Z,15.00
2024-01-22T07:05:34.744Z,17.00
2024-01-22T07:09:01.248Z,14.00
2024-01-22T07:12:31.803Z,18.30
2024-01-22T07:15:58.426Z,19.30
2024-01-22T07:19:24.770Z,15.40
2024-01-22T07:22:51.422Z,13.60
2024-01-22T07:26:17.617Z,11.90
2024-01-22T07:29:43.817Z,12.10
2024-01-22T07:33:10.148Z,14.60
2024-01-22T07:36:36.224Z,12.70
2024-01-22T07:40:02.813Z,12.40
2024-01-22T07:43:29.041Z,13.30
2024-01-22T07:46:57.524Z,15.40
2024-01-22T07:50:23.656Z,14.10
2024-01-22T07:53:49.697Z,11.60
2024-01-22T07:57:16.308Z,16.20
2024-01-22T08:00:42.640Z,17.40
2024-01-22T08:04:09.129Z,14.00
2024-01-22T08:07:37.944Z,18.00
2024-01-22T08:11:06.997Z,21.30
2024-01-22T08:14:34.573Z,16.90
2024-01-22T08:18:00.569Z,14.50
2024-01-22T08:21:26.485Z,19.00
2024-01-22T08:24:53.579Z,13.70
2024-01-22T08:28:19.706Z,20.80
2024-01-22T08:31:46.252Z,18.10
2024-01-22T08:35:12.919Z,12.20
2024-01-22T08:38:39.162Z,13.00
2024-01-22T08:42:05.205Z,14.80
2024-01-22T08:45:38.056Z,26.00
2024-01-22T08:49:04.490Z,18.30
2024-01-22T08:52:30.422Z,13.00
2024-01-22T08:55:59.151Z,16.30
2024-01-22T08:59:25.362Z,18.20
2024-01-22T09:02:52.594Z,19.40
2024-01-22T09:06:19.728Z,14.80
2024-01-22T09:09:46.245Z,24.00
2024-01-22T09:13:15.765Z,28.30
2024-01-22T09:16:42.075Z,22.00
2024-01-22T09:20:10.370Z,36.40
2024-01-22T09:23:39.687Z,27.20
2024-01-22T09:27:06.732Z,31.80
2024-01-22T09:30:35.364Z,27.50
2024-01-22T09:34:01.330Z,45.20
2024-01-22T09:37:27.659Z,26.00
2024-01-22T09:40:54.599Z,31.90
2024-01-22T09:44:21.314Z,26.40
2024-01-22T09:47:49.919Z,35.90
2024-01-22T09:51:17.161Z,25.30
2024-01-22T09:54:43.656Z,25.80
2024-01-22T09:58:16.050Z,26.30
2024-01-22T10:01:43.402Z,31.30
2024-01-22T10:05:11.160Z,28.40
2024-01-22T10:08:37.503Z,29.80
2024-01-22T10:12:04.187Z,27.60
2024-01-22T10:15:31.043Z,16.90
2024-01-22T10:19:05.913Z,21.80
2024-01-22T10:22:31.870Z,16.20
2024-01-22T10:26:10.826Z,16.90
2024-01-22T10:29:36.829Z,19.40
2024-01-22T10:33:13.669Z,15.70
2024-01-22T10:36:39.396Z,13.20
2024-01-22T10:40:10.997Z,19.30
2024-01-22T10:43:39.769Z,19.40
2024-01-22T10:47:06.950Z,19.00
2024-01-22T10:50:34.269Z,16.30
2024-01-22T10:54:00.571Z,17.70
2024-01-22T10:57:39.025Z,15.30
2024-01-22T11:01:11.435Z,13.20
2024-01-22T11:04:45.617Z,17.10
2024-01-22T11:08:14.108Z,14.20
2024-01-22T11:11:44.529Z,10.60
2024-01-22T11:15:12.059Z,13.80
2024-01-22T11:18:39.076Z,13.40
2024-01-22T11:22:10.410Z,12.70
2024-01-22T11:25:36.845Z,10.10
2024-01-22T11:29:15.310Z,11.30
2024-01-22T11:32:45.012Z,14.00
2024-01-22T11:36:12.213Z,16.40
2024-01-22T11:39:48.642Z,12.40
2024-01-22T11:43:15.613Z,13.10
2024-01-22T11:46:42.097Z,15.30
2024-01-22T11:50:09.493Z,11.50
2024-01-22T11:53:52.325Z,13.10
2024-01-22T11:57:20.259Z,13.90
2024-01-22T12:00:46.117Z,12.60
2024-01-22T12:07:43.643Z,11.80
2024-01-22T12:11:15.337Z,13.10
2024-01-22T12:14:41.350Z,13.10
2024-01-22T12:18:09.008Z,12.20
2024-01-22T12:21:35.124Z,13.30
2024-01-22T12:25:11.649Z,12.10
2024-01-22T12:28:37.880Z,12.60
2024-01-22T12:32:07.514Z,12.90
2024-01-22T12:35:33.679Z,13.70
2024-01-22T12:39:03.119Z,12.40
2024-01-22T12:42:29.068Z,11.40
2024-01-22T12:46:06.959Z,11.10
2024-01-22T12:49:33.805Z,13.70
2024-01-22T12:53:00.278Z,11.10
2024-01-22T12:56:26.577Z,13.10
2024-01-22T12:59:52.971Z,12.00
2024-01-22T13:03:19.880Z,16.10
2024-01-22T13:06:47.377Z,15.90
2024-01-22T13:10:14.381Z,14.10
2024-01-22T13:13:40.460Z,11.50
2024-01-22T13:17:09.804Z,11.40
2024-01-22T13:20:37.167Z,13.10
2024-01-22T13:24:03.263Z,11.30
2024-01-22T13:27:29.468Z,15.20
2024-01-22T13:30:56.048Z,10.20
2024-01-22T13:34:22.345Z,12.00
2024-01-22T13:37:48.873Z,12.40
2024-01-22T13:41:15.735Z,11.90
2024-01-22T13:44:41.541Z,10.40
2024-01-22T13:48:11.607Z,13.00
2024-01-22T13:51:38.197Z,12.20
2024-01-22T13:55:05.026Z,8.70
2024-01-22T13:58:32.422Z,11.10
2024-01-22T14:01:59.589Z,11.90
2024-01-22T14:05:26.340Z,11.60
2024-01-22T14:08:51.963Z,13.90
2024-01-22T14:12:18.047Z,9.00
2024-01-22T14:15:45.122Z,10.50
2024-01-22T14:19:11.748Z,10.10
2024-01-22T14:22:40.177Z,10.10
2024-01-22T14:26:09.088Z,9.80
2024-01-22T14:29:35.286Z,10.50
2024-01-22T14:33:01.762Z,9.70
2024-01-22T14:36:27.921Z,9.10
2024-01-22T14:39:54.207Z,11.50
2024-01-22T14:43:20.206Z,32.10
2024-01-22T14:46:48.105Z,10.20
2024-01-22T14:50:16.782Z,11.00
2024-01-22T14:53:42.952Z,11.70
2024-01-22T14:57:09.929Z,12.60
2024-01-22T15:00:36.634Z,12.60
2024-01-22T15:04:04.828Z,13.20
2024-01-22T15:07:30.526Z,11.10
2024-01-22T15:10:56.362Z,10.80
2024-01-22T15:14:23.666Z,13.10
2024-01-22T15:17:49.887Z,11.60
2024-01-22T15:21:16.396Z,10.00
2024-01-22T15:24:42.733Z,14.90
2024-01-22T15:28:09.949Z,15.00
2024-01-22T15:31:38.502Z,13.40
2024-01-22T15:35:07.234Z,11.80
2024-01-22T15:38:34.626Z,10.70
2024-01-22T15:42:02.243Z,11.80
2024-01-22T15:45:28.677Z,10.50
2024-01-22T15:48:55.282Z,9.90
2024-01-22T15:52:21.718Z,11.80
2024-01-22T15:55:47.962Z,11.10
2024-01-22T15:59:15.221Z,12.10
2024-01-22T16:02:41.299Z,11.60
2024-01-22T16:06:07.915Z,13.60
2024-01-22T16:09:34.596Z,11.50
2024-01-22T16:13:01.756Z,10.50
2024-01-22T16:16:28.131Z,10.50
2024-01-22T16:19:54.114Z,11.80
2024-01-22T16:23:20.167Z,13.00
2024-01-22T16:26:46.773Z,13.70
2024-01-22T16:30:15.506Z,12.70
2024-01-22T16:33:42.108Z,11.70
2024-01-22T16:37:11.181Z,12.80
2024-01-22T16:40:37.525Z,13.40
2024-01-22T16:44:04.270Z,14.20
2024-01-22T16:47:30.456Z,13.20
2024-01-22T16:50:56.747Z,14.80
2024-01-22T16:54:22.703Z,13.30
2024-01-22T16:57:49.642Z,14.50
2024-01-22T17:01:17.576Z,16.00
2024-01-22T17:04:43.710Z,13.70
2024-01-22T17:08:10.540Z,13.90
2024-01-22T17:11:36.814Z,20.30
2024-01-22T17:15:02.948Z,15.80
2024-01-22T17:18:28.968Z,18.90
2024-01-22T17:21:54.996Z,17.20
2024-01-22T17:25:21.333Z,13.70
2024-01-22T17:28:49.109Z,16.30
2024-01-22T17:32:15.293Z,15.10
2024-01-22T17:35:41.029Z,13.20
2024-01-22T17:39:08.058Z,18.60
2024-01-22T17:42:34.146Z,15.70
2024-01-22T17:46:00.304Z,15.70
2024-01-22T17:49:27.037Z,30.00
2024-01-22T17:52:53.058Z,24.10
2024-01-22T17:56:19.115Z,17.90
2024-01-22T17:59:45.719Z,15.70
2024-01-22T18:03:12.417Z,13.40
2024-01-22T18:06:38.230Z,17.70
2024-01-22T18:10:05.493Z,15.60
2024-01-22T18:13:31.643Z,18.40
2024-01-22T18:16:57.215Z,20.00
2024-01-22T18:20:23.346Z,17.00
2024-01-22T18:23:49.510Z,16.30
2024-01-22T18:27:15.378Z,22.10
2024-01-22T18:30:41.989Z,16.80
2024-01-22T18:34:08.303Z,18.20
2024-01-22T18:37:35.043Z,17.40
2024-01-22T18:41:00.865Z,19.80
2024-01-22T18:44:26.582Z,19.00
2024-01-22T18:47:53.039Z,20.50
2024-01-22T18:51:18.936Z,16.10
2024-01-22T18:54:45.331Z,19.60
2024-01-22T18:58:11.476Z,17.30
2024-01-22T19:01:37.555Z,16.00
2024-01-22T19:05:05.708Z,16.30
2024-01-22T19:08:32.117Z,18.30
2024-01-22T19:11:58.542Z,19.10
2024-01-22T19:15:24.710Z,17.20
2024-01-22T19:18:51.218Z,18.40
2024-01-22T19:22:18.038Z,22.40
2024-01-22T19:25:44.678Z,24.20
2024-01-22T19:29:10.711Z,22.00
2024-01-22T19:32:37.310Z,21.10
2024-01-22T19:36:03.435Z,20.20
2024-01-22T19:39:29.557Z,17.10
2024-01-22T19:42:56.109Z,21.30
2024-01-22T19:46:21.798Z,17.50
2024-01-22T19:49:47.958Z,24.70
2024-01-22T19:53:14.322Z,19.60
2024-01-22T19:56:46.576Z,21.30
2024-01-22T20:00:14.891Z,23.20
2024-01-22T20:03:40.963Z,21.40
2024-01-22T20:07:11.174Z,22.30
2024-01-22T20:10:37.421Z,27.90
2024-01-22T20:14:03.381Z,25.80
2024-01-22T20:17:29.488Z,20.30
2024-01-22T20:20:55.923Z,21.90
2024-01-22T20:24:22.151Z,21.20
2024-01-22T20:27:47.988Z,22.70
2024-01-22T20:31:13.771Z,21.90
2024-01-22T20:34:40.082Z,25.10
2024-01-22T20:38:07.045Z,20.80
2024-01-22T20:41:33.119Z,25.90
2024-01-22T20:44:59.231Z,24.20
2024-01-22T20:48:26.059Z,24.00
2024-01-22T20:51:52.273Z,21.40
2024-01-22T20:55:23.497Z,27.40
2024-01-22T20:58:49.648Z,24.40
2024-01-22T21:02:19.161Z,21.40
2024-01-22T21:05:45.543Z,23.90
2024-01-22T21:09:13.398Z,22.60
2024-01-22T21:12:40.075Z,32.30
2024-01-22T21:16:06.943Z,20.20
2024-01-22T21:19:34.157Z,21.10
2024-01-22T21:23:00.741Z,24.40
2024-01-22T21:26:27.278Z,23.30
2024-01-22T21:29:53.328Z,24.00
2024-01-22T21:33:22.358Z,26.00
2024-01-22T21:36:50.190Z,25.10
2024-01-22T21:40:17.994Z,20.10
2024-01-22T21:43:44.399Z,24.60
2024-01-22T21:47:11.172Z,26.40
2024-01-22T21:50:37.279Z,21.10
2024-01-22T21:54:03.031Z,20.90
2024-01-22T21:57:30.508Z,21.90
2024-01-22T22:00:56.948Z,20.10
2024-01-22T22:04:22.900Z,32.80
2024-01-22T22:07:50.419Z,22.00
2024-01-22T22:11:16.898Z,17.10
2024-01-22T22:14:43.583Z,18.80
2024-01-22T22:18:11.010Z,18.60
2024-01-22T22:21:48.762Z,18.90
2024-01-22T22:25:15.107Z,21.80
2024-01-22T22:28:41.021Z,17.20
2024-01-22T22:32:12.548Z,16.90
2024-01-22T22:35:42.743Z,17.40
2024-01-22T22:39:15.329Z,16.00
2024-01-22T22:42:42.251Z,16.40
2024-01-22T22:46:10.119Z,18.60
2024-01-22T22:49:37.545Z,13.40
2024-01-22T22:53:04.035Z,13.00
2024-01-22T22:56:30.374Z,14.10
2024-01-22T22:59:59.888Z,10.20
2024-01-22T23:03:27.049Z,11.40
2024-01-22T23:06:53.652Z,12.10
2024-01-22T23:10:19.740Z,10.90
2024-01-22T23:13:46.137Z,19.00
2024-01-22T23:17:12.328Z,22.10
2024-01-22T23:20:38.129Z,17.30
2024-01-22T23:24:04.611Z,12.00
2024-01-22T23:27:32.143Z,13.10
2024-01-22T23:31:00.710Z,13.30
2024-01-22T23:34:29.123Z,12.90
2024-01-22T23:38:00.134Z,13.00
2024-01-22T23:41:26.223Z,11.70
2024-01-22T23:44:54.553Z,12.10
2024-01-22T23:48:22.833Z,14.80
2024-01-22T23:51:49.165Z,13.70
2024-01-22T23:55:16.155Z,11.70
2024-01-22T23:58:42.013Z,12.60
